createdAt,value
2018-05-21T00:05:52.930Z,0
2018-05-21T00:15:53.038Z,0
2018-05-21T00:25:52.985Z,0
2018-05-21T00:35:52.927Z,0
2018-05-21T00:45:52.921Z,0
2018-05-21T00:55:52.906Z,0
2018-05-21T01:05:53.025Z,0
2018-05-21T01:15:52.934Z,0
2018-05-21T01:25:53.009Z,0
2018-05-21T01:35:52.920Z,0
2018-05-21T01:45:52.931Z,0
2018-05-21T01:55:52.923Z,0
2018-05-21T02:05:52.907Z,0
2018-05-21T02:15:52.892Z,0
2018-05-21T02:25:52.896Z,0
2018-05-21T02:35:52.911Z,0
2018-05-21T02:45:52.901Z,0
2018-05-21T02:55:52.934Z,12
2018-05-21T03:05:52.893Z,28
2018-05-21T03:15:52.940Z,88
2018-05-21T03:25:52.895Z,232
2018-05-21T03:35:52.888Z,488
2018-05-21T03:45:52.882Z,876
2018-05-21T03:55:52.876Z,1296
2018-05-21T04:05:52.930Z,1744
2018-05-21T04:15:52.917Z,2380
2018-05-21T04:25:52.951Z,2688
2018-05-21T04:35:52.934Z,3104
2018-05-21T04:45:52.891Z,3524
2018-05-21T04:55:52.940Z,3996
2018-05-21T05:05:52.894Z,4120
2018-05-21T05:15:52.926Z,4420
2018-05-21T05:25:52.873Z,4736
2018-05-21T05:35:52.945Z,4992
2018-05-21T05:45:52.918Z,5316
2018-05-21T05:55:52.879Z,5892
2018-05-21T06:05:52.897Z,7304
2018-05-21T06:15:52.928Z,10012
2018-05-21T06:25:53.015Z,49248
2018-05-21T06:35:52.917Z,48960
2018-05-21T06:45:52.951Z,50528
2018-05-21T06:55:52.917Z,55808
2018-05-21T07:05:52.922Z,53696
2018-05-21T07:15:52.936Z,47296
2018-05-21T07:25:52.931Z,64512
2018-05-21T07:35:52.897Z,61088
2018-05-21T07:45:52.957Z,52928
2018-05-21T07:55:53.062Z,66112
2018-05-21T08:05:53.017Z,75520
2018-05-21T08:15:52.983Z,72608
2018-05-21T08:25:53.022Z,88000
2018-05-21T08:35:52.954Z,77760
2018-05-21T08:45:53.722Z,74528
2018-05-21T08:55:53.051Z,8532
2018-05-21T09:05:53.043Z,7216
2018-05-21T09:15:52.995Z,7272
2018-05-21T09:25:53.000Z,6856
2018-05-21T09:35:53.057Z,6728
2018-05-21T09:45:52.983Z,7072
2018-05-21T09:55:53.010Z,7428
2018-05-21T10:05:53.016Z,7040
2018-05-21T10:15:53.018Z,6016
2018-05-21T10:25:53.047Z,6016
2018-05-21T10:35:52.980Z,5604
2018-05-21T10:45:53.001Z,5140
2018-05-21T10:55:53.035Z,4804
2018-05-21T11:05:53.025Z,4916
2018-05-21T11:15:53.224Z,4696
2018-05-21T11:25:53.278Z,4588
2018-05-21T11:35:53.026Z,4484
2018-05-21T11:45:53.358Z,4208
2018-05-21T11:55:53.067Z,4136
2018-05-21T12:05:53.064Z,4088
2018-05-21T12:15:53.039Z,4036
2018-05-21T12:25:59.077Z,4044
2018-05-21T12:35:53.208Z,3924
2018-05-21T12:52:19.909Z,3860
2018-05-21T12:55:53.033Z,3864
2018-05-21T13:05:53.029Z,3872
2018-05-21T13:15:53.010Z,3876
2018-05-21T13:25:53.025Z,3788
2018-05-21T13:35:53.084Z,3776
2018-05-21T13:45:53.196Z,3760
2018-05-21T13:55:53.097Z,3776
2018-05-21T14:05:53.129Z,3712
2018-05-21T14:15:53.065Z,3668
2018-05-21T14:25:53.048Z,3640
2018-05-21T14:35:53.258Z,3596
2018-05-21T14:45:53.047Z,3548
2018-05-21T14:55:53.153Z,3532
2018-05-21T15:05:53.448Z,3488
2018-05-21T15:15:53.360Z,3480
2018-05-21T15:25:53.216Z,3448
2018-05-21T15:35:53.419Z,3396
2018-05-21T15:45:53.522Z,3360
2018-05-21T15:55:54.119Z,3308
2018-05-21T16:05:53.437Z,3288
2018-05-21T16:15:53.143Z,3228
2018-05-21T16:25:53.150Z,3216
2018-05-21T16:35:53.078Z,3180
2018-05-21T16:45:53.092Z,3140
2018-05-21T16:55:53.237Z,3068
2018-05-21T17:05:53.115Z,3008
2018-05-21T17:15:53.347Z,2932
2018-05-21T17:25:53.091Z,2836
2018-05-21T17:35:53.146Z,2728
2018-05-21T17:45:53.082Z,2572
2018-05-21T17:55:54.954Z,2336
2018-05-21T18:05:53.454Z,2196
2018-05-21T18:15:53.111Z,1940
2018-05-21T18:25:53.266Z,1680
2018-05-21T18:35:53.208Z,1536
2018-05-21T18:45:53.226Z,1360
2018-05-21T18:55:53.134Z,916
2018-05-21T19:05:53.165Z,600
2018-05-21T19:15:53.166Z,340
2018-05-21T19:25:53.122Z,172
2018-05-21T19:35:53.153Z,80
2018-05-21T19:45:53.145Z,28
2018-05-21T19:55:53.309Z,8
2018-05-21T20:05:53.125Z,4
2018-05-21T20:15:53.095Z,4
2018-05-21T20:25:53.424Z,0
2018-05-21T20:35:53.163Z,4
2018-05-21T20:45:53.222Z,4
2018-05-21T20:55:53.357Z,0
2018-05-21T21:05:53.147Z,0
2018-05-21T21:15:53.591Z,0
2018-05-21T21:25:53.819Z,0
2018-05-21T21:35:53.493Z,0
2018-05-21T21:45:53.361Z,0
2018-05-21T21:55:53.240Z,0
2018-05-21T22:05:53.133Z,0
2018-05-21T22:15:53.754Z,0
2018-05-21T22:25:53.109Z,0
2018-05-21T22:35:53.136Z,0
2018-05-21T22:45:53.121Z,0
2018-05-21T22:55:53.134Z,0
2018-05-21T23:05:53.157Z,0
2018-05-21T23:15:53.163Z,0
2018-05-21T23:25:53.169Z,0
2018-05-21T23:35:53.078Z,0
2018-05-21T23:45:53.089Z,0
2018-05-21T23:55:53.183Z,0
